createdAt,value
2018-11-14T00:00:44.081Z,90.99
2018-11-14T00:01:44.063Z,90.99
2018-11-14T00:02:44.071Z,90.99
2018-11-14T00:03:44.038Z,90.9
2018-11-14T00:04:44.039Z,90.99
2018-11-14T00:05:43.766Z,91.09
2018-11-14T00:06:44.024Z,91.19
2018-11-14T00:07:43.990Z,90.99
2018-11-14T00:08:43.997Z,90.9
2018-11-14T00:09:43.818Z,91.09
2018-11-14T00:10:43.971Z,90.99
2018-11-14T00:11:43.941Z,91.19
2018-11-14T00:12:43.941Z,91.28
2018-11-14T00:13:43.967Z,91.09
2018-11-14T00:14:43.928Z,91.28
2018-11-14T00:15:43.654Z,91.09
2018-11-14T00:16:43.641Z,91.47
2018-11-14T00:17:43.870Z,91.38
2018-11-14T00:18:43.856Z,91.09
2018-11-14T00:19:43.863Z,91.28
2018-11-14T00:20:43.843Z,91.47
2018-11-14T00:21:43.905Z,91.09
2018-11-14T00:22:43.817Z,90.99
2018-11-14T00:23:43.562Z,90.99
2018-11-14T00:24:43.611Z,90.99
2018-11-14T00:25:43.789Z,90.9
2018-11-14T00:26:43.907Z,91.38
2018-11-14T00:27:43.857Z,91.19
2018-11-14T00:28:43.741Z,91.19
2018-11-14T00:29:43.475Z,90.52
2018-11-14T00:30:43.472Z,90.52
2018-11-14T00:31:43.460Z,90.52
2018-11-14T00:32:43.693Z,90.52
2018-11-14T00:33:43.735Z,90.42
2018-11-14T00:34:43.685Z,90.71
2018-11-14T00:35:43.858Z,91.09
2018-11-14T00:36:43.644Z,90.99
2018-11-14T00:37:43.648Z,91.28
2018-11-14T00:38:43.616Z,91.28
2018-11-14T00:39:43.366Z,91.09
2018-11-14T00:40:43.592Z,91.28
2018-11-14T00:41:43.598Z,91.66
2018-11-14T00:42:43.570Z,91.75
2018-11-14T00:43:43.572Z,91.94
2018-11-14T00:44:43.558Z,91.66
2018-11-14T00:45:43.550Z,91.94
2018-11-14T00:46:43.519Z,91.38
2018-11-14T00:47:43.511Z,90.99
2018-11-14T00:48:43.510Z,90.71
2018-11-14T00:49:43.501Z,90.71
2018-11-14T00:50:43.488Z,90.71
2018-11-14T00:51:43.466Z,90.42
2018-11-14T00:52:43.462Z,90.61
2018-11-14T00:53:43.457Z,90.99
2018-11-14T00:54:43.454Z,91.28
2018-11-14T00:55:43.431Z,91.09
2018-11-14T00:56:43.147Z,90.9
2018-11-14T00:57:43.149Z,91.09
2018-11-14T00:58:43.374Z,91.94
2018-11-14T00:59:43.385Z,92.13
2018-11-14T01:00:43.370Z,91.85
2018-11-14T01:01:43.224Z,91.94
2018-11-14T01:02:43.078Z,91.94
2018-11-14T01:03:43.063Z,92.13
2018-11-14T01:04:43.062Z,91.94
2018-11-14T01:05:43.052Z,92.04
2018-11-14T01:06:43.298Z,92.04
2018-11-14T01:07:43.519Z,91.75
2018-11-14T01:08:43.278Z,91.85
2018-11-14T01:09:43.248Z,91.56
2018-11-14T01:10:43.252Z,91.56
2018-11-14T01:11:43.219Z,91.56
2018-11-14T01:12:43.227Z,91.75
2018-11-14T01:13:43.199Z,92.13
2018-11-14T01:14:43.202Z,91.85
2018-11-14T01:15:42.918Z,92.42
2018-11-14T01:16:43.164Z,92.13
2018-11-14T01:17:43.145Z,92.04
2018-11-14T01:18:42.899Z,92.42
2018-11-14T01:19:43.121Z,92.23
2018-11-14T01:20:42.866Z,92.13
2018-11-14T01:21:42.911Z,92.32
2018-11-14T01:22:43.109Z,92.61
2018-11-14T01:23:43.078Z,92.61
2018-11-14T01:24:43.084Z,92.61
2018-11-14T01:25:42.797Z,92.51
2018-11-14T01:26:43.063Z,92.71
2018-11-14T01:27:43.023Z,92.61
2018-11-14T01:28:43.036Z,92.71
2018-11-14T01:29:43.004Z,92.51
2018-11-14T01:30:43.018Z,92.51
2018-11-14T01:31:42.976Z,92.61
2018-11-14T01:32:42.972Z,92.61
2018-11-14T01:33:42.956Z,92.61
2018-11-14T01:34:42.958Z,92.51
2018-11-14T01:35:43.065Z,92.71
2018-11-14T01:36:42.921Z,92.61
2018-11-14T01:37:42.906Z,92.61
2018-11-14T01:38:42.891Z,92.42
2018-11-14T01:39:42.639Z,92.71
2018-11-14T01:40:42.871Z,92.61
2018-11-14T01:41:42.614Z,92.42
2018-11-14T01:42:42.840Z,92.51
2018-11-14T01:43:42.847Z,92.8
2018-11-14T01:44:42.822Z,92.42
2018-11-14T01:45:42.804Z,92.66
2018-11-14T01:46:42.813Z,92.61
2018-11-14T01:47:42.784Z,92.61
2018-11-14T01:48:42.772Z,92.71
2018-11-14T01:49:42.503Z,92.56
2018-11-14T01:50:42.766Z,92.56
2018-11-14T01:51:42.756Z,92.56
2018-11-14T01:52:42.723Z,92.66
2018-11-14T01:53:42.453Z,92.56
2018-11-14T01:54:42.692Z,92.61
2018-11-14T01:55:42.700Z,92.75
2018-11-14T01:56:42.680Z,92.85
2018-11-14T01:57:42.660Z,92.42
2018-11-14T01:58:42.667Z,92.56
2018-11-14T01:59:42.629Z,92.13
2018-11-14T02:00:42.379Z,92.13
2018-11-14T02:01:42.354Z,92.32
2018-11-14T02:02:42.613Z,92.51
2018-11-14T02:03:42.580Z,92.18
2018-11-14T02:04:42.573Z,92.66
2018-11-14T02:05:42.556Z,92.71
2018-11-14T02:06:42.561Z,92.37
2018-11-14T02:07:42.554Z,92.85
2018-11-14T02:08:42.530Z,92.47
2018-11-14T02:09:42.508Z,92.9
2018-11-14T02:10:42.514Z,92.66
2018-11-14T02:11:42.483Z,92.47
2018-11-14T02:12:42.484Z,92.66
2018-11-14T02:13:42.459Z,92.56
2018-11-14T02:14:42.468Z,92.56
2018-11-14T02:15:42.181Z,92.66
2018-11-14T02:16:42.440Z,92.85
2018-11-14T02:17:42.408Z,92.56
2018-11-14T02:18:42.415Z,92.75
2018-11-14T02:19:42.385Z,92.75
2018-11-14T02:20:42.378Z,92.66
2018-11-14T02:21:42.365Z,92.47
2018-11-14T02:22:42.373Z,92.37
2018-11-14T02:23:42.095Z,92.37
2018-11-14T02:24:42.326Z,92.37
2018-11-14T02:25:42.610Z,92.56
2018-11-14T02:26:42.296Z,92.66
2018-11-14T02:27:42.309Z,92.47
2018-11-14T02:28:42.280Z,92.66
2018-11-14T02:29:42.281Z,92.47
2018-11-14T02:30:42.249Z,92.28
2018-11-14T02:31:41.995Z,92.47
2018-11-14T02:32:42.235Z,92.37
2018-11-14T02:33:42.234Z,92.94
2018-11-14T02:34:42.198Z,92.85
2018-11-14T02:35:42.207Z,92.47
2018-11-14T02:36:42.186Z,92.37
2018-11-14T02:37:42.159Z,92.56
2018-11-14T02:38:42.166Z,92.47
2018-11-14T02:39:42.151Z,92.85
2018-11-14T02:40:42.130Z,92.47
2018-11-14T02:41:42.110Z,92.37
2018-11-14T02:42:42.099Z,92.37
2018-11-14T02:43:42.100Z,92.56
2018-11-14T02:44:42.077Z,92.37
2018-11-14T02:45:42.079Z,92.85
2018-11-14T02:46:42.051Z,92.75
2018-11-14T02:47:42.051Z,92.56
2018-11-14T02:48:42.021Z,92.47
2018-11-14T02:49:42.031Z,92.47
2018-11-14T02:50:41.996Z,92.66
2018-11-14T02:51:42.009Z,92.56
2018-11-14T02:52:41.990Z,92.56
2018-11-14T02:53:41.979Z,92.56
2018-11-14T02:54:41.698Z,92.56
2018-11-14T02:55:41.950Z,92.75
2018-11-14T02:56:41.934Z,92.47
2018-11-14T02:57:41.670Z,92.75
2018-11-14T02:58:41.963Z,92.66
2018-11-14T02:59:41.890Z,92.47
2018-11-14T03:00:41.885Z,92.56
2018-11-14T03:01:41.886Z,92.75
2018-11-14T03:02:41.845Z,92.47
2018-11-14T03:03:41.851Z,92.56
2018-11-14T03:04:41.832Z,92.47
2018-11-14T03:05:41.826Z,92.37
2018-11-14T03:06:41.800Z,92.56
2018-11-14T03:07:41.823Z,92.56
2018-11-14T03:08:41.788Z,92.47
2018-11-14T03:09:41.776Z,92.47
2018-11-14T03:10:41.745Z,92.28
2018-11-14T03:11:41.733Z,92.28
2018-11-14T03:12:41.734Z,92.28
2018-11-14T03:13:41.724Z,92.28
2018-11-14T03:14:41.717Z,92.37
2018-11-14T03:15:41.684Z,92.28
2018-11-14T03:16:41.682Z,92.37
2018-11-14T03:17:41.664Z,92.37
2018-11-14T03:18:41.667Z,92.28
2018-11-14T03:19:41.635Z,92.47
2018-11-14T03:20:41.635Z,92.47
2018-11-14T03:21:41.353Z,92.47
2018-11-14T03:22:41.623Z,92.37
2018-11-14T03:23:41.326Z,92.56
2018-11-14T03:24:41.573Z,92.56
2018-11-14T03:25:41.306Z,92.56
2018-11-14T03:26:41.561Z,92.56
2018-11-14T03:27:41.528Z,92.66
2018-11-14T03:28:41.529Z,92.56
2018-11-14T03:29:41.524Z,92.56
2018-11-14T03:30:41.514Z,92.18
2018-11-14T03:31:41.482Z,92.56
2018-11-14T03:32:41.506Z,92.28
2018-11-14T03:33:41.467Z,92.37
2018-11-14T03:34:41.461Z,92.28
2018-11-14T03:35:41.428Z,92.28
2018-11-14T03:36:41.439Z,92.37
2018-11-14T03:37:41.404Z,92.37
2018-11-14T03:38:41.408Z,92.66
2018-11-14T03:39:41.377Z,92.37
2018-11-14T03:40:41.387Z,92.47
2018-11-14T03:41:41.373Z,92.56
2018-11-14T03:42:41.342Z,92.66
2018-11-14T03:43:41.326Z,92.47
2018-11-14T03:44:41.329Z,92.37
2018-11-14T03:45:41.322Z,92.18
2018-11-14T03:46:41.310Z,92.47
2018-11-14T03:47:41.281Z,92.28
2018-11-14T03:48:41.020Z,92.37
2018-11-14T03:49:41.253Z,92.28
2018-11-14T03:50:41.256Z,92.47
2018-11-14T03:51:41.225Z,92.37
2018-11-14T03:52:41.229Z,92.47
2018-11-14T03:53:41.221Z,92.56
2018-11-14T03:54:41.185Z,92.47
2018-11-14T03:55:40.937Z,92.56
2018-11-14T03:56:41.172Z,92.37
2018-11-14T03:57:41.173Z,92.37
2018-11-14T03:58:41.138Z,92.37
2018-11-14T03:59:41.124Z,92.37
2018-11-14T04:00:41.123Z,92.56
2018-11-14T04:01:41.117Z,92.56
2018-11-14T04:02:41.103Z,92.56
2018-11-14T04:03:41.074Z,92.56
2018-11-14T04:04:41.075Z,92.47
2018-11-14T04:05:40.874Z,92.47
2018-11-14T04:06:41.055Z,92.56
2018-11-14T04:07:41.023Z,92.47
2018-11-14T04:08:40.773Z,92.66
2018-11-14T04:09:40.998Z,92.66
2018-11-14T04:10:41.005Z,92.47
2018-11-14T04:11:40.974Z,92.56
2018-11-14T04:12:40.960Z,92.75
2018-11-14T04:13:40.945Z,92.18
2018-11-14T04:14:41.205Z,92.56
2018-11-14T04:15:40.940Z,92.56
2018-11-14T04:16:40.911Z,92.56
2018-11-14T04:17:40.899Z,92.56
2018-11-14T04:18:40.903Z,92.47
2018-11-14T04:19:40.867Z,92.47
2018-11-14T04:20:40.620Z,92.56
2018-11-14T04:21:40.845Z,92.66
2018-11-14T04:22:40.859Z,92.66
2018-11-14T04:23:40.818Z,92.37
2018-11-14T04:24:40.827Z,92.37
2018-11-14T04:25:40.791Z,92.56
2018-11-14T04:26:40.805Z,92.85
2018-11-14T04:27:40.765Z,93.23
2018-11-14T04:28:40.756Z,93.18
2018-11-14T04:29:40.742Z,93.23
2018-11-14T04:30:40.487Z,92.9
2018-11-14T04:31:40.733Z,93.08
2018-11-14T04:32:40.706Z,93.18
2018-11-14T04:33:40.688Z,93.27
2018-11-14T04:34:40.677Z,93.37
2018-11-14T04:35:40.683Z,92.9
2018-11-14T04:36:40.657Z,93.08
2018-11-14T04:37:40.657Z,93.46
2018-11-14T04:38:40.625Z,92.99
2018-11-14T04:39:40.634Z,92.8
2018-11-14T04:40:40.597Z,93.56
2018-11-14T04:41:40.603Z,93.56
2018-11-14T04:42:40.573Z,93.46
2018-11-14T04:43:40.578Z,93.37
2018-11-14T04:44:40.551Z,93.27
2018-11-14T04:45:40.785Z,93.46
2018-11-14T04:46:40.546Z,93.37
2018-11-14T04:47:40.534Z,93.65
2018-11-14T04:48:40.510Z,93.65
2018-11-14T04:49:40.231Z,93.65
2018-11-14T04:50:40.478Z,93.37
2018-11-14T04:51:40.478Z,93.84
2018-11-14T04:52:40.450Z,93.27
2018-11-14T04:53:40.449Z,93.37
2018-11-14T04:54:40.419Z,93.37
2018-11-14T04:55:40.426Z,93.27
2018-11-14T04:56:40.391Z,93.56
2018-11-14T04:57:40.399Z,93.46
2018-11-14T04:58:40.365Z,93.37
2018-11-14T04:59:40.112Z,93.18
2018-11-14T05:00:40.354Z,93.37
2018-11-14T05:01:40.090Z,93.18
2018-11-14T05:02:40.488Z,93.27
2018-11-14T05:03:40.299Z,93.18
2018-11-14T05:04:40.302Z,93.37
2018-11-14T05:05:40.292Z,93.37
2018-11-14T05:06:40.277Z,93.46
2018-11-14T05:07:40.250Z,93.46
2018-11-14T05:08:40.249Z,93.46
2018-11-14T05:09:40.238Z,93.37
2018-11-14T05:10:39.958Z,93.37
2018-11-14T05:11:40.213Z,93.65
2018-11-14T05:12:40.183Z,93.46
2018-11-14T05:13:40.201Z,93.37
2018-11-14T05:14:40.163Z,93.37
2018-11-14T05:15:40.164Z,93.46
2018-11-14T05:16:40.146Z,93.46
2018-11-14T05:17:40.135Z,93.27
2018-11-14T05:18:40.112Z,93.46
2018-11-14T05:19:40.092Z,93.46
2018-11-14T05:20:40.091Z,93.18
2018-11-14T05:21:40.082Z,93.46
2018-11-14T05:22:40.055Z,93.56
2018-11-14T05:23:40.065Z,93.37
2018-11-14T05:24:40.218Z,93.46
2018-11-14T05:25:40.031Z,93.46
2018-11-14T05:26:39.997Z,93.27
2018-11-14T05:27:39.746Z,93.46
2018-11-14T05:28:39.972Z,93.27
2018-11-14T05:29:39.988Z,93.27
2018-11-14T05:30:39.946Z,93.27
2018-11-14T05:31:40.022Z,93.46
2018-11-14T05:32:39.935Z,93.46
2018-11-14T05:33:39.927Z,93.46
2018-11-14T05:34:39.898Z,93.46
2018-11-14T05:35:39.900Z,93.37
2018-11-14T05:36:39.620Z,93.18
2018-11-14T05:37:39.854Z,93.37
2018-11-14T05:38:39.844Z,93.46
2018-11-14T05:39:40.022Z,93.37
2018-11-14T05:40:39.817Z,93.65
2018-11-14T05:41:39.822Z,93.46
2018-11-14T05:42:39.790Z,93.65
2018-11-14T05:43:39.799Z,93.46
2018-11-14T05:44:39.759Z,93.56
2018-11-14T05:45:39.981Z,93.65
2018-11-14T05:46:39.734Z,93.27
2018-11-14T05:47:39.740Z,93.46
2018-11-14T05:48:39.722Z,93.27
2018-11-14T05:49:39.717Z,93.37
2018-11-14T05:50:39.681Z,93.27
2018-11-14T05:51:39.416Z,93.65
2018-11-14T05:52:39.668Z,93.37
2018-11-14T05:53:39.659Z,93.37
2018-11-14T05:54:39.718Z,93.65
2018-11-14T05:55:39.620Z,93.27
2018-11-14T05:56:39.619Z,93.27
2018-11-14T05:57:39.589Z,93.65
2018-11-14T05:58:39.594Z,93.65
2018-11-14T05:59:39.563Z,93.65
2018-11-14T06:00:39.563Z,93.84
2018-11-14T06:01:39.552Z,93.84
2018-11-14T06:02:39.533Z,93.37
2018-11-14T06:03:39.528Z,93.75
2018-11-14T06:04:39.513Z,93.51
2018-11-14T06:05:39.500Z,93.46
2018-11-14T06:06:39.218Z,93.65
2018-11-14T06:07:39.616Z,93.37
2018-11-14T06:08:39.457Z,93.37
2018-11-14T06:09:39.455Z,93.37
2018-11-14T06:10:39.434Z,93.65
2018-11-14T06:11:39.404Z,93.18
2018-11-14T06:12:39.406Z,93.75
2018-11-14T06:13:39.377Z,93.61
2018-11-14T06:14:39.383Z,93.84
2018-11-14T06:15:39.349Z,93.84
2018-11-14T06:16:39.355Z,93.7
2018-11-14T06:17:39.328Z,93.18
2018-11-14T06:18:39.071Z,93.46
2018-11-14T06:19:39.301Z,93.46
2018-11-14T06:20:39.288Z,93.65
2018-11-14T06:21:39.270Z,93.46
2018-11-14T06:22:39.278Z,93.56
2018-11-14T06:23:39.441Z,93.18
2018-11-14T06:24:39.235Z,93.27
2018-11-14T06:25:39.228Z,93.37
2018-11-14T06:26:39.225Z,93.37
2018-11-14T06:27:39.191Z,93.37
2018-11-14T06:28:39.191Z,93.37
2018-11-14T06:29:39.291Z,93.46
2018-11-14T06:30:39.173Z,93.46
2018-11-14T06:31:39.137Z,93.37
2018-11-14T06:32:39.144Z,93.27
2018-11-14T06:33:39.113Z,93.46
2018-11-14T06:34:39.117Z,93.46
2018-11-14T06:35:39.087Z,93.37
2018-11-14T06:36:39.076Z,93.27
2018-11-14T06:37:39.056Z,93.37
2018-11-14T06:38:39.061Z,93.27
2018-11-14T06:39:39.050Z,92.8
2018-11-14T06:40:39.021Z,93.08
2018-11-14T06:41:39.086Z,93.37
2018-11-14T06:42:38.989Z,92.99
2018-11-14T06:43:39.000Z,92.8
2018-11-14T06:44:38.968Z,92.8
2018-11-14T06:45:38.972Z,92.8
2018-11-14T06:46:38.939Z,93.27
2018-11-14T06:47:38.945Z,93.18
2018-11-14T06:48:38.911Z,92.9
2018-11-14T06:49:38.661Z,92.99
2018-11-14T06:50:38.639Z,92.8
2018-11-14T06:51:38.636Z,92.9
2018-11-14T06:52:38.868Z,93.08
2018-11-14T06:53:38.597Z,92.99
2018-11-14T06:54:38.855Z,93.18
2018-11-14T06:55:38.849Z,93.08
2018-11-14T06:56:38.562Z,92.99
2018-11-14T06:57:38.799Z,93.08
2018-11-14T06:58:38.817Z,92.52
2018-11-14T06:59:38.958Z,93.08
2018-11-14T07:00:39.065Z,92.23
2018-11-14T07:01:38.764Z,92.23
2018-11-14T07:02:40.912Z,92.28
2018-11-14T07:03:38.746Z,92.23
2018-11-14T07:04:38.455Z,92.33
2018-11-14T07:05:38.645Z,92.28
2018-11-14T07:06:38.691Z,92.33
2018-11-14T07:07:38.687Z,92.56
2018-11-14T07:08:38.669Z,92.47
2018-11-14T07:09:38.663Z,92.47
2018-11-14T07:10:38.633Z,92.37
2018-11-14T07:11:38.366Z,92.37
2018-11-14T07:12:38.363Z,92.66
2018-11-14T07:13:38.612Z,92.56
2018-11-14T07:14:38.602Z,92.56
2018-11-14T07:15:38.570Z,92.37
2018-11-14T07:16:38.576Z,92.47
2018-11-14T07:17:38.640Z,92.75
2018-11-14T07:18:38.531Z,92.66
2018-11-14T07:19:38.281Z,92.56
2018-11-14T07:20:38.511Z,92.37
2018-11-14T07:21:38.513Z,92.47
2018-11-14T07:22:38.483Z,92.37
2018-11-14T07:23:38.541Z,92.28
2018-11-14T07:24:38.701Z,92.51
2018-11-14T07:25:38.207Z,92.28
2018-11-14T07:26:38.438Z,92.09
2018-11-14T07:27:38.422Z,92.04
2018-11-14T07:28:38.426Z,92.13
2018-11-14T07:29:38.415Z,92.23
2018-11-14T07:30:38.406Z,92.13
2018-11-14T07:31:38.372Z,92.23
2018-11-14T07:32:38.375Z,92.32
2018-11-14T07:33:38.347Z,92.32
2018-11-14T07:34:38.098Z,92.13
2018-11-14T07:35:38.324Z,92.13
2018-11-14T07:36:38.339Z,91.85
2018-11-14T07:37:38.329Z,92.04
2018-11-14T07:38:38.307Z,91.75
2018-11-14T07:39:38.025Z,91.66
2018-11-14T07:40:38.268Z,91.75
2018-11-14T07:41:38.255Z,91.47
2018-11-14T07:42:38.002Z,91.85
2018-11-14T07:43:38.532Z,91.56
2018-11-14T07:44:38.230Z,91.66
2018-11-14T07:45:38.228Z,91.8
2018-11-14T07:46:38.213Z,91.94
2018-11-14T07:47:37.930Z,91.85
2018-11-14T07:48:38.187Z,91.75
2018-11-14T07:49:38.160Z,91.94
2018-11-14T07:50:38.166Z,91.56
2018-11-14T07:51:38.135Z,91.52
2018-11-14T07:52:38.136Z,91.99
2018-11-14T07:53:38.124Z,92.08
2018-11-14T07:54:38.233Z,91.89
2018-11-14T07:55:37.837Z,91.99
2018-11-14T07:56:38.083Z,91.61
2018-11-14T07:57:38.068Z,91.89
2018-11-14T07:58:38.073Z,91.71
2018-11-14T07:59:38.062Z,91.89
2018-11-14T08:00:37.785Z,91.89
2018-11-14T08:01:38.019Z,91.89
2018-11-14T08:02:37.760Z,91.89
2018-11-14T08:03:38.017Z,91.61
2018-11-14T08:04:37.993Z,91.99
2018-11-14T08:05:37.995Z,91.71
2018-11-14T08:06:37.711Z,91.71
2018-11-14T08:07:37.732Z,91.89
2018-11-14T08:08:37.949Z,91.71
2018-11-14T08:09:37.928Z,91.89
2018-11-14T08:10:37.938Z,91.99
2018-11-14T08:11:37.906Z,92.08
2018-11-14T08:12:37.900Z,91.71
2018-11-14T08:13:37.887Z,91.8
2018-11-14T08:14:37.899Z,91.89
2018-11-14T08:15:37.881Z,91.99
2018-11-14T08:16:37.603Z,91.8
2018-11-14T08:17:37.586Z,92.08
2018-11-14T08:18:37.884Z,91.89
2018-11-14T08:19:37.834Z,91.85
2018-11-14T08:20:37.813Z,91.71
2018-11-14T08:21:37.814Z,91.61
2018-11-14T08:22:37.788Z,92.13
2018-11-14T08:23:38.041Z,91.71
2018-11-14T08:24:37.759Z,91.75
2018-11-14T08:25:37.770Z,92.13
2018-11-14T08:26:37.739Z,91.75
2018-11-14T08:27:37.749Z,91.85
2018-11-14T08:28:37.731Z,92.13
2018-11-14T08:29:37.725Z,91.75
2018-11-14T08:30:37.522Z,92.03
2018-11-14T08:31:37.684Z,92.03
2018-11-14T08:32:37.689Z,92.13
2018-11-14T08:33:37.689Z,91.85
2018-11-14T08:34:37.649Z,92.03
2018-11-14T08:35:37.656Z,92.03
2018-11-14T08:36:37.637Z,92.13
2018-11-14T08:37:37.634Z,92.03
2018-11-14T08:38:37.609Z,91.85
2018-11-14T08:39:37.613Z,92.13
2018-11-14T08:40:37.585Z,92.13
2018-11-14T08:41:37.592Z,92.03
2018-11-14T08:42:37.560Z,92.13
2018-11-14T08:43:37.571Z,92.13
2018-11-14T08:44:37.607Z,92.03
2018-11-14T08:45:37.546Z,92.03
2018-11-14T08:46:37.518Z,92.03
2018-11-14T08:47:37.525Z,91.28
2018-11-14T08:48:37.498Z,91.85
2018-11-14T08:49:37.231Z,91.94
2018-11-14T08:50:37.473Z,92.03
2018-11-14T08:51:37.483Z,91.66
2018-11-14T08:52:37.454Z,92.03
2018-11-14T08:53:37.463Z,92.03
2018-11-14T08:54:37.428Z,92.13
2018-11-14T08:55:37.439Z,92.13
2018-11-14T08:56:37.414Z,91.94
2018-11-14T08:57:37.416Z,91.37
2018-11-14T08:58:37.394Z,91.18
2018-11-14T08:59:37.137Z,91.32
2018-11-14T09:00:37.118Z,91.22
2018-11-14T09:01:37.101Z,90.94
2018-11-14T09:02:37.107Z,91.03
2018-11-14T09:03:37.355Z,91.03
2018-11-14T09:04:37.326Z,91.32
2018-11-14T09:05:37.320Z,92.18
2018-11-14T09:06:37.301Z,91.03
2018-11-14T09:07:37.065Z,91.32
2018-11-14T09:08:37.286Z,91.99
2018-11-14T09:09:37.287Z,92.08
2018-11-14T09:10:37.258Z,91.8
2018-11-14T09:11:37.270Z,91.32
2018-11-14T09:12:37.418Z,91.22
2018-11-14T09:13:37.254Z,91.22
2018-11-14T09:14:37.529Z,91.32
2018-11-14T09:15:37.223Z,91.03
2018-11-14T09:16:37.209Z,91.42
2018-11-14T09:17:37.203Z,91.03
2018-11-14T09:18:36.967Z,91.22
2018-11-14T09:19:37.169Z,91.22
2018-11-14T09:20:37.165Z,91.22
2018-11-14T09:21:37.159Z,90.94
2018-11-14T09:22:37.152Z,91.03
2018-11-14T09:23:37.118Z,90.66
2018-11-14T09:24:37.127Z,90.8
2018-11-14T09:25:36.863Z,90.99
2018-11-14T09:26:37.091Z,90.22
2018-11-14T09:27:37.096Z,90.32
2018-11-14T09:28:37.069Z,90.42
2018-11-14T09:29:36.819Z,90.42
2018-11-14T09:30:37.046Z,89.84
2018-11-14T09:31:37.057Z,89.84
2018-11-14T09:32:37.046Z,90.17
2018-11-14T09:33:36.779Z,89.89
2018-11-14T09:34:37.088Z,90.17
2018-11-14T09:35:37.007Z,89.79
2018-11-14T09:36:37.003Z,89.98
2018-11-14T09:37:37.001Z,89.32
2018-11-14T09:38:36.993Z,88.93
2018-11-14T09:39:36.960Z,89.36
2018-11-14T09:40:37.035Z,89.36
2018-11-14T09:41:37.141Z,89.84
2018-11-14T09:42:36.949Z,89.55
2018-11-14T09:43:36.919Z,89.94
2018-11-14T09:44:37.083Z,89.94
2018-11-14T09:45:36.902Z,89.75
2018-11-14T09:46:36.915Z,89.75
2018-11-14T09:47:36.882Z,89.94
2018-11-14T09:48:36.937Z,89.94
2018-11-14T09:49:36.867Z,90.6
2018-11-14T09:50:36.876Z,90.31
2018-11-14T09:51:36.851Z,90.17
2018-11-14T09:52:36.851Z,89.79
2018-11-14T09:53:36.846Z,89.89
2018-11-14T09:54:36.839Z,90.08
2018-11-14T09:55:36.809Z,89.89
2018-11-14T09:56:36.905Z,89.98
2018-11-14T09:57:36.793Z,89.89
2018-11-14T09:58:36.889Z,89.89
2018-11-14T09:59:36.779Z,89.79
2018-11-14T10:00:36.915Z,90.08
2018-11-14T10:01:36.756Z,89.89
2018-11-14T10:02:36.823Z,89.98
2018-11-14T10:03:36.880Z,90.55
2018-11-14T10:04:36.734Z,90.45
2018-11-14T10:05:36.952Z,90.64
2018-11-14T10:06:36.736Z,90.74
2018-11-14T10:07:36.725Z,90.31
2018-11-14T10:08:36.449Z,90.31
2018-11-14T10:09:36.435Z,90.12
2018-11-14T10:10:36.427Z,90.59
2018-11-14T10:11:36.691Z,90.5
2018-11-14T10:12:36.756Z,90.5
2018-11-14T10:13:36.415Z,90.59
2018-11-14T10:14:36.648Z,90.69
2018-11-14T10:15:36.716Z,90.69
2018-11-14T10:16:36.630Z,90.41
2018-11-14T10:17:36.624Z,90.79
2018-11-14T10:18:36.748Z,91.64
2018-11-14T10:19:36.603Z,91.64
2018-11-14T10:20:36.600Z,91.46
2018-11-14T10:21:36.644Z,91.07
2018-11-14T10:22:36.338Z,90.79
2018-11-14T10:23:36.587Z,90.98
2018-11-14T10:24:36.566Z,90.88
2018-11-14T10:25:36.299Z,90.79
2018-11-14T10:26:36.295Z,90.5
2018-11-14T10:27:36.553Z,90.31
2018-11-14T10:28:36.528Z,90.79
2018-11-14T10:29:36.520Z,90.98
2018-11-14T10:30:36.533Z,90.88
2018-11-14T10:31:36.653Z,90.59
2018-11-14T10:32:36.254Z,91.12
2018-11-14T10:33:36.484Z,90.55
2018-11-14T10:34:36.501Z,90.55
2018-11-14T10:35:36.477Z,90.55
2018-11-14T10:36:36.469Z,90.36
2018-11-14T10:37:36.451Z,90.17
2018-11-14T10:38:36.462Z,90.64
2018-11-14T10:39:36.453Z,90.73
2018-11-14T10:40:36.431Z,89.97
2018-11-14T10:41:36.419Z,90.07
2018-11-14T10:42:36.432Z,90.17
2018-11-14T10:43:36.404Z,90.45
2018-11-14T10:44:36.153Z,90.36
2018-11-14T10:45:36.386Z,90.5
2018-11-14T10:46:36.397Z,90.07
2018-11-14T10:47:36.373Z,90.11
2018-11-14T10:48:36.125Z,90.36
2018-11-14T10:49:36.355Z,90.07
2018-11-14T10:50:36.366Z,90.31
2018-11-14T10:51:36.345Z,90.5
2018-11-14T10:52:36.335Z,90.69
2018-11-14T10:53:36.324Z,90.88
2018-11-14T10:54:36.088Z,90.4
2018-11-14T10:55:36.327Z,90.97
2018-11-14T10:56:36.305Z,90.88
2018-11-14T10:57:36.292Z,90.69
2018-11-14T10:58:36.405Z,90.69
2018-11-14T10:59:36.547Z,90.78
2018-11-14T11:00:36.278Z,90.5
2018-11-14T11:01:36.280Z,90.4
2018-11-14T11:02:36.252Z,90.21
2018-11-14T11:03:36.264Z,90.59
2018-11-14T11:04:36.236Z,90.21
2018-11-14T11:05:36.249Z,90.11
2018-11-14T11:06:36.235Z,90.31
2018-11-14T11:07:35.975Z,90.31
2018-11-14T11:08:36.035Z,90.69
2018-11-14T11:09:36.201Z,90.4
2018-11-14T11:10:36.212Z,90.78
2018-11-14T11:11:35.943Z,90.97
2018-11-14T11:12:36.180Z,90.59
2018-11-14T11:13:36.181Z,90.4
2018-11-14T11:14:36.163Z,90.21
2018-11-14T11:15:36.170Z,90.5
2018-11-14T11:16:36.198Z,90.4
2018-11-14T11:17:36.162Z,90.21
2018-11-14T11:18:36.241Z,90.31
2018-11-14T11:19:35.882Z,90.97
2018-11-14T11:20:36.117Z,90.69
2018-11-14T11:21:36.125Z,91.07
2018-11-14T11:22:36.099Z,90.69
2018-11-14T11:23:36.340Z,90.59
2018-11-14T11:24:36.099Z,91.16
2018-11-14T11:25:36.095Z,91.36
2018-11-14T11:26:36.070Z,90.97
2018-11-14T11:27:36.065Z,90.64
2018-11-14T11:28:36.072Z,91.36
2018-11-14T11:29:35.807Z,90.64
2018-11-14T11:30:36.150Z,90.88
2018-11-14T11:31:36.032Z,91.11
2018-11-14T11:32:36.045Z,90.64
2018-11-14T11:33:36.034Z,91.4
2018-11-14T11:34:35.756Z,90.92
2018-11-14T11:35:35.761Z,91.02
2018-11-14T11:36:35.992Z,91.11
2018-11-14T11:37:36.005Z,91.11
2018-11-14T11:38:35.978Z,90.73
2018-11-14T11:39:35.991Z,90.83
2018-11-14T11:40:35.978Z,90.25
2018-11-14T11:41:35.979Z,90.16
2018-11-14T11:42:35.950Z,90.16
2018-11-14T11:43:35.941Z,90.35
2018-11-14T11:44:35.771Z,90.01
2018-11-14T11:45:35.952Z,89.53
2018-11-14T11:46:35.681Z,90.2
2018-11-14T11:47:35.912Z,90.01
2018-11-14T11:48:35.663Z,90.01
2018-11-14T11:49:35.899Z,89.44
2018-11-14T11:50:35.921Z,89.53
2018-11-14T11:51:35.633Z,89.53
2018-11-14T11:52:35.897Z,89.34
2018-11-14T11:53:35.870Z,89.58
2018-11-14T11:54:36.370Z,89.44
2018-11-14T11:55:35.607Z,89.73
2018-11-14T11:56:35.603Z,89.39
2018-11-14T11:57:35.651Z,91.06
2018-11-14T11:58:35.854Z,89.77
2018-11-14T11:59:35.990Z,90.82
2018-11-14T12:00:35.883Z,89.63
2018-11-14T12:01:35.871Z,89.58
2018-11-14T12:02:35.830Z,89.96
2018-11-14T12:03:35.800Z,89.39
2018-11-14T12:04:35.808Z,89.2
2018-11-14T12:05:35.573Z,89.67
2018-11-14T12:06:35.897Z,89.29
2018-11-14T12:07:35.774Z,89.2
2018-11-14T12:08:35.784Z,89.29
2018-11-14T12:09:35.758Z,90.34
2018-11-14T12:10:35.799Z,90.16
2018-11-14T12:11:35.747Z,90.34
2018-11-14T12:12:35.757Z,90.73
2018-11-14T12:13:35.871Z,90.16
2018-11-14T12:14:35.730Z,91.11
2018-11-14T12:15:35.721Z,91.49
2018-11-14T12:16:35.737Z,91.88
2018-11-14T12:17:35.529Z,91.2
2018-11-14T12:18:35.723Z,91.11
2018-11-14T12:19:35.698Z,91.49
2018-11-14T12:20:35.448Z,90.92
2018-11-14T12:21:35.679Z,91.2
2018-11-14T12:22:35.692Z,91.11
2018-11-14T12:23:35.799Z,91.02
2018-11-14T12:24:35.677Z,91.39
2018-11-14T12:25:35.658Z,91.02
2018-11-14T12:26:35.647Z,92.83
2018-11-14T12:27:35.817Z,91.88
2018-11-14T12:28:35.652Z,91.68
2018-11-14T12:29:35.631Z,91.78
2018-11-14T12:30:35.885Z,91.39
2018-11-14T12:31:35.612Z,91.3
2018-11-14T12:32:35.626Z,91.2
2018-11-14T12:33:35.604Z,91.2
2018-11-14T12:34:35.648Z,91.02
2018-11-14T12:35:35.730Z,91.11
2018-11-14T12:36:35.602Z,91.39
2018-11-14T12:37:35.572Z,91.11
2018-11-14T12:38:35.626Z,90.82
2018-11-14T12:39:35.560Z,90.82
2018-11-14T12:40:35.572Z,90.82
2018-11-14T12:41:35.562Z,90.92
2018-11-14T12:42:35.563Z,91.02
2018-11-14T12:43:35.280Z,90.82
2018-11-14T12:44:35.274Z,90.73
2018-11-14T12:45:35.275Z,90.53
2018-11-14T12:46:35.531Z,90.63
2018-11-14T12:47:35.525Z,90.73
2018-11-14T12:48:35.498Z,90.25
2018-11-14T12:49:35.511Z,90.25
2018-11-14T12:50:35.505Z,89.96
2018-11-14T12:51:35.487Z,90.39
2018-11-14T12:52:35.262Z,90.39
2018-11-14T12:53:35.465Z,90.48
2018-11-14T12:54:35.479Z,90.39